KAPC/APC METAR and TAF weather

Enter ICAO airport designator
Station Type Date Time Source
KAPC METAR 2018/04/21 20:54 UTC NOAA

KAPC 212054Z 21005KT 10SM CLR A3008 RMK AO2 SLP179 58020 $


Station Type Date Time Source
KAPC Decoded METAR 2018/04/21 20:54 UTC NOAA

NAPA COUNTY AIRPORT, CA, United States (KAPC) 38-12N 122-17W 13M
Apr 21, 2018 - 04:54 PM EDT / 2018.04.21 2054 UTC
Wind: from the SSW (210 degrees) at 6 MPH (5 KT):0
Visibility: 10 mile(s):0
Sky conditions: clear
Pressure (altimeter): 30.08 in. Hg (1018 hPa)
Pressure tendency: 0.06 inches (2.0 hPa) lower than three hours ago
ob: KAPC 212054Z 21005KT 10SM CLR A3008 RMK AO2 SLP179 58020
cycle: 21

Station Type Date Time Source
KAPC TAF 2016/02/08 18:39 UTC NOAA

TAF KAPC 081738Z 0818/0918 08008KT P6SM SKC
FM081900 09012KT P6SM SKC
FM090000 07007KT P6SM SKC
FM090600 04004KT P6SM SKC


Example: see airport list